11:41
Airports
Links
Donate
Help keep this website running!
PayPal
Bitcoin
METAR
KBKF 201058Z 19007KT 10SM FEW160 FEW220 16/05 A3009 RMK AO2A SLP107 T01610053
Current Weather Conditions at KBKF
VFR 10:58:00 20-08-17
Automated station
Altimeter:30.09 hg
Temp:16.1°c 61°f
Dew point:5.3°c 41°f
Wind:7 knots, 8.1 mph, 4 m/s, from 190°
Visibility:10.0 statute miles
22000(FEW) A few
16000(FEW) A few
Past METAR reports
VFR 09:58:00 20-08-17
Automated station
Altimeter:30.10 hg
Temp:17.6°c 63°f
Dew point:4.8°c 39°f
Wind:6 knots, 6.9 mph, 3 m/s, from 250°
Visibility:10.0 statute miles
22000(FEW) A few
16000(FEW) A few
KBKF 200958Z 25006KT 10SM FEW160 FEW220 18/05 A3010 RMK AO2A SLP105 T01760048
VFR 08:58:00 20-08-17
Automated station
Altimeter:30.09 hg
Temp:17.1°c 63°f
Dew point:5.3°c 41°f
Wind:7 knots, 8.1 mph, 4 m/s, from 190°
Visibility:10.0 statute miles
22000(FEW) A few
16000(FEW) A few
KBKF 200858Z 19007KT 10SM FEW160 FEW220 17/05 A3009 RMK AO2A SLP105 T01710053 56006
VFR 07:58:00 20-08-17
Automated station
Altimeter:30.09 hg
Temp:17.0°c 63°f
Dew point:5.5°c 41°f
Wind:8 knots, 9.2 mph, 4 m/s, from 180°
Visibility:10.0 statute miles
22000(FEW) A few
16000(FEW) A few
KBKF 200758Z 18008KT 10SM FEW160 FEW220 17/06 A3009 RMK AO2A SLP105 T01700055
VFR 06:58:00 20-08-17
Automated station
Altimeter:30.11 hg
Temp:18.2°c 64°f
Dew point:5.6°c 41°f
Wind:7 knots, 8.1 mph, 4 m/s, from 180°
Visibility:10.0 statute miles
22000(FEW) A few
16000(FEW) A few
KBKF 200658Z 18007KT 10SM FEW160 FEW220 18/06 A3011 RMK AO2A SLP112 T01820056 403400173
VFR 05:58:00 20-08-17
Automated station
Altimeter:30.11 hg
Temp:19.1°c 66°f
Dew point:5.8°c 41°f
Wind:6 knots, 6.9 mph, 3 m/s, from 250°
Visibility:10.0 statute miles
22000(BKN) Broken
16000(SCT) Scattered
KBKF 200558Z 25006KT 10SM SCT160 BKN220 19/06 A3011 RMK AO2A SLP112 T01910058 10295 20191 50006
TAF
TAF KBKF 200901Z 2009/2115 18009KT 9999 FEW150 FEW250 QNH3006INS BECMG 2016/2017 06009KT 9999 SCT120 QNH3005INS TEMPO 2023/2102 VRB15G25KT VCTS SCT090CB BECMG 2101/2102 18009KT 9999 SCT120 BKN200 QNH3007INS TX35/2021Z TN14/2012Z
Forecast at KBKF
09:00 20-08-17 to 16:00 20-08-17
Wind:9 Knots from 180°
Visibility:6.21 statute miles
15000FEW A few
25000FEW A few
BECMG 16:00 20-08-17 to 01:00 21-08-17
Wind:9 Knots from 60°
Visibility:6.21 statute miles
12000SCT Scattered
TEMPO 23:00 20-08-17 to 02:00 21-08-17
VCTS
Wind:15 Knots from 360°
9000SCT Scattered
BECMG 01:00 21-08-17 to 15:00 21-08-17
Wind:9 Knots from 180°
Visibility:6.21 statute miles
12000SCT Scattered
20000BKN Broken